sensor_id;sensor_type;location;lat;lon;timestamp;pressure;altitude;pressure_sealevel;temperature
81177;BMP280;74095;48.270;14.200;2024-01-25T00:02:13;98800.53;;;9.66
81177;BMP280;74095;48.270;14.200;2024-01-25T00:04:39;98793.59;;;9.50
81177;BMP280;74095;48.270;14.200;2024-01-25T00:07:08;98801.03;;;9.53
81177;BMP280;74095;48.270;14.200;2024-01-25T00:09:34;98797.31;;;9.59
81177;BMP280;74095;48.270;14.200;2024-01-25T00:12:00;98806.09;;;9.54
81177;BMP280;74095;48.270;14.200;2024-01-25T00:14:26;98803.72;;;9.53
81177;BMP280;74095;48.270;14.200;2024-01-25T00:16:51;98805.59;;;9.52
81177;BMP280;74095;48.270;14.200;2024-01-25T00:19:17;98799.97;;;9.44
81177;BMP280;74095;48.270;14.200;2024-01-25T00:21:43;98793.56;;;9.35
81177;BMP280;74095;48.270;14.200;2024-01-25T00:24:13;98802.09;;;9.47
81177;BMP280;74095;48.270;14.200;2024-01-25T00:26:39;98799.97;;;9.44
81177;BMP280;74095;48.270;14.200;2024-01-25T00:29:05;98803.16;;;9.46
81177;BMP280;74095;48.270;14.200;2024-01-25T00:31:31;98795.69;;;9.43
81177;BMP280;74095;48.270;14.200;2024-01-25T00:33:57;98808.75;;;9.49
81177;BMP280;74095;48.270;14.200;2024-01-25T00:36:24;98802.63;;;9.44
81177;BMP280;74095;48.270;14.200;2024-01-25T00:38:50;98800.50;;;9.46
81177;BMP280;74095;48.270;14.200;2024-01-25T00:41:18;98803.69;;;9.43
81177;BMP280;74095;48.270;14.200;2024-01-25T00:43:47;98810.38;;;9.50
81177;BMP280;74095;48.270;14.200;2024-01-25T00:46:14;98806.88;;;9.45
81177;BMP280;74095;48.270;14.200;2024-01-25T00:48:40;98807.69;;;9.45
81177;BMP280;74095;48.270;14.200;2024-01-25T00:51:07;98803.97;;;9.46
81177;BMP280;74095;48.270;14.200;2024-01-25T00:53:34;98798.38;;;9.43
81177;BMP280;74095;48.270;14.200;2024-01-25T00:56:00;98805.28;;;9.54
81177;BMP280;74095;48.270;14.200;2024-01-25T00:58:26;98818.94;;;9.52
81177;BMP280;74095;48.270;14.200;2024-01-25T01:00:52;98808.75;;;9.54
81177;BMP280;74095;48.270;14.200;2024-01-25T01:03:18;98808.50;;;9.46
81177;BMP280;74095;48.270;14.200;2024-01-25T01:05:45;98814.63;;;9.46
81177;BMP280;74095;48.270;14.200;2024-01-25T01:08:12;98814.38;;;9.53
81177;BMP280;74095;48.270;14.200;2024-01-25T01:10:38;98801.56;;;9.50
81177;BMP280;74095;48.270;14.200;2024-01-25T01:13:03;98810.63;;;9.64
81177;BMP280;74095;48.270;14.200;2024-01-25T01:15:29;98813.88;;;9.61
81177;BMP280;74095;48.270;14.200;2024-01-25T01:17:55;98821.59;;;9.57
81177;BMP280;74095;48.270;14.200;2024-01-25T01:20:21;98832.25;;;9.52
81177;BMP280;74095;48.270;14.200;2024-01-25T01:22:47;98826.59;;;9.54
81177;BMP280;74095;48.270;14.200;2024-01-25T01:25:13;98821.28;;;9.54
81177;BMP280;74095;48.270;14.200;2024-01-25T01:27:39;98814.38;;;9.53
81177;BMP280;74095;48.270;14.200;2024-01-25T01:30:05;98824.22;;;9.42
81177;BMP280;74095;48.270;14.200;2024-01-25T01:32:33;98815.44;;;9.52
81177;BMP280;74095;48.270;14.200;2024-01-25T01:34:59;98817.00;;;9.48
81177;BMP280;74095;48.270;14.200;2024-01-25T01:37:25;98802.09;;;9.42
81177;BMP280;74095;48.270;14.200;2024-01-25T01:39:51;98806.34;;;9.48
81177;BMP280;74095;48.270;14.200;2024-01-25T01:42:18;98795.44;;;9.34
81177;BMP280;74095;48.270;14.200;2024-01-25T01:44:44;98800.97;;;9.28
81177;BMP280;74095;48.270;14.200;2024-01-25T01:47:10;98814.88;;;9.30
81177;BMP280;74095;48.270;14.200;2024-01-25T01:49:35;98822.88;;;9.35
81177;BMP280;74095;48.270;14.200;2024-01-25T01:52:02;98815.91;;;9.24
81177;BMP280;74095;48.270;14.200;2024-01-25T01:54:28;98798.59;;;9.26
81177;BMP280;74095;48.270;14.200;2024-01-25T01:56:54;98804.97;;;9.15
81177;BMP280;74095;48.270;14.200;2024-01-25T01:59:21;98814.88;;;9.25
81177;BMP280;74095;48.270;14.200;2024-01-25T02:01:47;98803.66;;;9.23
81177;BMP280;74095;48.270;14.200;2024-01-25T02:04:12;98794.06;;;9.32
81177;BMP280;74095;48.270;14.200;2024-01-25T02:06:38;98794.06;;;9.32
81177;BMP280;74095;48.270;14.200;2024-01-25T02:09:04;98809.56;;;9.35
81177;BMP280;74095;48.270;14.200;2024-01-25T02:11:30;98813.53;;;9.32
81177;BMP280;74095;48.270;14.200;2024-01-25T02:13:56;98811.38;;;9.29
81177;BMP280;74095;48.270;14.200;2024-01-25T02:16:22;98818.59;;;9.34
81177;BMP280;74095;48.270;14.200;2024-01-25T02:18:48;98821.81;;;9.31
81177;BMP280;74095;48.270;14.200;2024-01-25T02:21:14;98823.91;;;9.24
81177;BMP280;74095;48.270;14.200;2024-01-25T02:23:40;98812.19;;;9.25
81177;BMP280;74095;48.270;14.200;2024-01-25T02:26:06;98815.91;;;9.24
81177;BMP280;74095;48.270;14.200;2024-01-25T02:28:32;98806.88;;;9.25
81177;BMP280;74095;48.270;14.200;2024-01-25T02:31:01;98822.31;;;9.33
81177;BMP280;74095;48.270;14.200;2024-01-25T02:33:27;98805.28;;;9.34
81177;BMP280;74095;48.270;14.200;2024-01-25T02:35:53;98795.94;;;9.31
81177;BMP280;74095;48.270;14.200;2024-01-25T02:38:18;98792.75;;;9.24
81177;BMP280;74095;48.270;14.200;2024-01-25T02:40:44;98807.91;;;9.29
81177;BMP280;74095;48.270;14.200;2024-01-25T02:43:10;98798.84;;;9.19
81177;BMP280;74095;48.270;14.200;2024-01-25T02:45:36;98803.13;;;9.26
81177;BMP280;74095;48.270;14.200;2024-01-25T02:48:02;98792.19;;;9.22
81177;BMP280;74095;48.270;14.200;2024-01-25T02:50:29;98795.13;;;9.26
81177;BMP280;74095;48.270;14.200;2024-01-25T02:52:55;98793.81;;;9.33
81177;BMP280;74095;48.270;14.200;2024-01-25T02:55:21;98782.38;;;9.33
81177;BMP280;74095;48.270;14.200;2024-01-25T02:57:47;98787.16;;;9.36
81177;BMP280;74095;48.270;14.200;2024-01-25T03:00:13;98788.50;;;9.33
81177;BMP280;74095;48.270;14.200;2024-01-25T03:02:43;98782.38;;;9.33
81177;BMP280;74095;48.270;14.200;2024-01-25T03:05:11;98777.28;;;9.31
81177;BMP280;74095;48.270;14.200;2024-01-25T03:07:40;98767.97;;;9.29
81177;BMP280;74095;48.270;14.200;2024-01-25T03:10:08;98769.59;;;9.25
81177;BMP280;74095;48.270;14.200;2024-01-25T03:12:34;98769.00;;;9.17
81177;BMP280;74095;48.270;14.200;2024-01-25T03:15:03;98770.09;;;9.21
81177;BMP280;74095;48.270;14.200;2024-01-25T03:17:35;98775.41;;;9.21
81177;BMP280;74095;48.270;14.200;2024-01-25T03:20:05;98791.94;;;9.24
81177;BMP280;74095;48.270;14.200;2024-01-25T03:22:36;98784.97;;;9.17
81177;BMP280;74095;48.270;14.200;2024-01-25T03:25:10;98784.97;;;9.17
81177;BMP280;74095;48.270;14.200;2024-01-25T03:27:40;98788.97;;;9.15
81177;BMP280;74095;48.270;14.200;2024-01-25T03:30:09;98779.41;;;9.14
81177;BMP280;74095;48.270;14.200;2024-01-25T03:32:39;98783.94;;;9.13
81177;BMP280;74095;48.270;14.200;2024-01-25T03:35:08;98776.69;;;9.09
81177;BMP280;74095;48.270;14.200;2024-01-25T03:37:38;98770.56;;;8.98
81177;BMP280;74095;48.270;14.200;2024-01-25T03:40:08;98783.38;;;9.11
81177;BMP280;74095;48.270;14.200;2024-01-25T03:42:37;98781.72;;;9.00
81177;BMP280;74095;48.270;14.200;2024-01-25T03:45:08;98771.91;;;9.06
81177;BMP280;74095;48.270;14.200;2024-01-25T03:47:39;98781.78;;;9.05
81177;BMP280;74095;48.270;14.200;2024-01-25T03:50:09;98777.00;;;9.12
81177;BMP280;74095;48.270;14.200;2024-01-25T03:52:39;98783.94;;;9.13
81177;BMP280;74095;48.270;14.200;2024-01-25T03:55:10;98779.94;;;9.16
81177;BMP280;74095;48.270;14.200;2024-01-25T03:57:42;98781.75;;;9.10
81177;BMP280;74095;48.270;14.200;2024-01-25T04:00:16;98774.56;;;9.11
81177;BMP280;74095;48.270;14.200;2024-01-25T04:02:47;98767.41;;;9.11
81177;BMP280;74095;48.270;14.200;2024-01-25T04:05:18;98766.31;;;9.02
81177;BMP280;74095;48.270;14.200;2024-01-25T04:07:49;98777.25;;;9.11
81177;BMP280;74095;48.270;14.200;2024-01-25T04:10:21;98777.25;;;9.11
81177;BMP280;74095;48.270;14.200;2024-01-25T04:12:56;98778.53;;;9.03
81177;BMP280;74095;48.270;14.200;2024-01-25T04:15:34;98781.19;;;8.93
81177;BMP280;74095;48.270;14.200;2024-01-25T04:18:04;98791.81;;;8.93
81177;BMP280;74095;48.270;14.200;2024-01-25T04:20:33;98782.75;;;8.84
81177;BMP280;74095;48.270;14.200;2024-01-25T04:23:05;98784.88;;;8.87
81177;BMP280;74095;48.270;14.200;2024-01-25T04:25:37;98784.38;;;8.90
81177;BMP280;74095;48.270;14.200;2024-01-25T04:28:07;98778.47;;;8.83
81177;BMP280;74095;48.270;14.200;2024-01-25T04:30:37;98774.75;;;8.84
81177;BMP280;74095;48.270;14.200;2024-01-25T04:33:10;98777.16;;;8.81
81177;BMP280;74095;48.270;14.200;2024-01-25T04:35:40;98775.25;;;8.76
81177;BMP280;74095;48.270;14.200;2024-01-25T04:38:09;98765.94;;;8.74
81177;BMP280;74095;48.270;14.200;2024-01-25T04:40:37;98778.44;;;8.73
81177;BMP280;74095;48.270;14.200;2024-01-25T04:43:06;98782.72;;;8.74
81177;BMP280;74095;48.270;14.200;2024-01-25T04:45:37;98781.91;;;8.68
81177;BMP280;74095;48.270;14.200;2024-01-25T04:48:11;98782.16;;;8.72
81177;BMP280;74095;48.270;14.200;2024-01-25T04:50:42;98783.75;;;8.73
81177;BMP280;74095;48.270;14.200;2024-01-25T04:53:12;98804.25;;;8.73
81177;BMP280;74095;48.270;14.200;2024-01-25T04:55:42;98805.56;;;8.70
81177;BMP280;74095;48.270;14.200;2024-01-25T04:58:12;98805.56;;;8.70
81177;BMP280;74095;48.270;14.200;2024-01-25T05:00:42;98810.31;;;8.63
81177;BMP280;74095;48.270;14.200;2024-01-25T05:03:14;98804.25;;;8.67
81177;BMP280;74095;48.270;14.200;2024-01-25T05:05:43;98802.09;;;8.64
81177;BMP280;74095;48.270;14.200;2024-01-25T05:08:13;98790.66;;;8.64
81177;BMP280;74095;48.270;14.200;2024-01-25T05:10:42;98790.66;;;8.59
81177;BMP280;74095;48.270;14.200;2024-01-25T05:13:11;98791.75;;;8.68
81177;BMP280;74095;48.270;14.200;2024-01-25T05:15:41;98786.38;;;8.58
81177;BMP280;74095;48.270;14.200;2024-01-25T05:18:11;98796.47;;;8.61
81177;BMP280;74095;48.270;14.200;2024-01-25T05:20:40;98791.94;;;8.61
81177;BMP280;74095;48.270;14.200;2024-01-25T05:23:10;98806.03;;;8.57
81177;BMP280;74095;48.270;14.200;2024-01-25T05:25:40;98777.72;;;8.36
81177;BMP280;74095;48.270;14.200;2024-01-25T05:28:08;98801.28;;;8.59
81177;BMP280;74095;48.270;14.200;2024-01-25T05:30:38;98786.63;;;8.61
81177;BMP280;74095;48.270;14.200;2024-01-25T05:33:09;98797.25;;;8.56
81177;BMP280;74095;48.270;14.200;2024-01-25T05:35:38;98790.09;;;8.57
81177;BMP280;74095;48.270;14.200;2024-01-25T05:38:11;98796.41;;;8.51
81177;BMP280;74095;48.270;14.200;2024-01-25T05:40:41;98804.44;;;8.56
81177;BMP280;74095;48.270;14.200;2024-01-25T05:43:12;98807.66;;;8.58
81177;BMP280;74095;48.270;14.200;2024-01-25T05:45:43;98806.59;;;8.59
81177;BMP280;74095;48.270;14.200;2024-01-25T05:48:18;98786.75;;;8.40
81177;BMP280;74095;48.270;14.200;2024-01-25T05:50:48;98803.88;;;8.49
81177;BMP280;74095;48.270;14.200;2024-01-25T05:53:17;98807.84;;;8.51
81177;BMP280;74095;48.270;14.200;2024-01-25T05:55:47;98793.22;;;8.49
81177;BMP280;74095;48.270;14.200;2024-01-25T05:58:15;98779.91;;;8.49
81177;BMP280;74095;48.270;14.200;2024-01-25T06:00:46;98794.00;;;8.49
81177;BMP280;74095;48.270;14.200;2024-01-25T06:03:15;98796.97;;;8.53
81177;BMP280;74095;48.270;14.200;2024-01-25T06:05:45;98799.13;;;8.56
81177;BMP280;74095;48.270;14.200;2024-01-25T06:08:14;98806.00;;;8.47
81177;BMP280;74095;48.270;14.200;2024-01-25T06:10:45;98803.88;;;8.49
81177;BMP280;74095;48.270;14.200;2024-01-25T06:13:13;98790.00;;;8.42
81177;BMP280;74095;48.270;14.200;2024-01-25T06:15:45;98796.66;;;8.44
81177;BMP280;74095;48.270;14.200;2024-01-25T06:18:16;98801.69;;;8.41
81177;BMP280;74095;48.270;14.200;2024-01-25T06:20:45;98812.31;;;8.41
81177;BMP280;74095;48.270;14.200;2024-01-25T06:23:14;98812.25;;;8.31
81177;BMP280;74095;48.270;14.200;2024-01-25T06:25:45;98811.25;;;8.37
81177;BMP280;74095;48.270;14.200;2024-01-25T06:28:15;98810.94;;;8.33
81177;BMP280;74095;48.270;14.200;2024-01-25T06:30:47;98810.38;;;8.26
81177;BMP280;74095;48.270;14.200;2024-01-25T06:33:17;98815.38;;;8.23
81177;BMP280;74095;48.270;14.200;2024-01-25T06:35:46;98808.22;;;8.23
81177;BMP280;74095;48.270;14.200;2024-01-25T06:38:16;98795.13;;;8.16
81177;BMP280;74095;48.270;14.200;2024-01-25T06:40:47;98788.13;;;8.05
81177;BMP280;74095;48.270;14.200;2024-01-25T06:43:17;98806.25;;;8.08
81177;BMP280;74095;48.270;14.200;2024-01-25T06:45:46;98810.22;;;8.06
81177;BMP280;74095;48.270;14.200;2024-01-25T06:48:17;98815.28;;;8.07
81177;BMP280;74095;48.270;14.200;2024-01-25T06:50:47;98825.66;;;8.09
81177;BMP280;74095;48.270;14.200;2024-01-25T06:53:30;98830.22;;;8.13
81177;BMP280;74095;48.270;14.200;2024-01-25T06:56:30;98852.03;;;8.15
81177;BMP280;74095;48.270;14.200;2024-01-25T06:59:15;98856.88;;;8.24
81177;BMP280;74095;48.270;14.200;2024-01-25T07:02:05;98840.63;;;8.15
81177;BMP280;74095;48.270;14.200;2024-01-25T07:04:40;98847.00;;;8.19
81177;BMP280;74095;48.270;14.200;2024-01-25T07:07:13;98837.16;;;8.14
81177;BMP280;74095;48.270;14.200;2024-01-25T07:09:41;98838.41;;;8.07
81177;BMP280;74095;48.270;14.200;2024-01-25T07:12:12;98853.81;;;8.10
81177;BMP280;74095;48.270;14.200;2024-01-25T07:14:42;98864.78;;;8.13
81177;BMP280;74095;48.270;14.200;2024-01-25T07:17:12;98864.56;;;8.20
81177;BMP280;74095;48.270;14.200;2024-01-25T07:19:43;98879.06;;;8.39
81177;BMP280;74095;48.270;14.200;2024-01-25T07:22:14;98889.50;;;8.46
81177;BMP280;74095;48.270;14.200;2024-01-25T07:24:44;98910.63;;;8.62
81177;BMP280;74095;48.270;14.200;2024-01-25T07:27:13;98908.03;;;8.73
81177;BMP280;74095;48.270;14.200;2024-01-25T07:29:47;98908.91;;;8.78
81177;BMP280;74095;48.270;14.200;2024-01-25T07:32:16;98908.34;;;8.81
81177;BMP280;74095;48.270;14.200;2024-01-25T07:34:47;98907.56;;;8.81
81177;BMP280;74095;48.270;14.200;2024-01-25T07:37:16;98891.50;;;8.70
81177;BMP280;74095;48.270;14.200;2024-01-25T07:39:50;98895.28;;;8.75
81177;BMP280;74095;48.270;14.200;2024-01-25T07:42:18;98884.91;;;8.73
81177;BMP280;74095;48.270;14.200;2024-01-25T07:44:47;98886.66;;;8.57
81177;BMP280;74095;48.270;14.200;2024-01-25T07:47:16;98881.47;;;8.41
81177;BMP280;74095;48.270;14.200;2024-01-25T07:49:45;98881.53;;;8.46
81177;BMP280;74095;48.270;14.200;2024-01-25T07:52:15;98886.34;;;8.54
81177;BMP280;74095;48.270;14.200;2024-01-25T07:54:47;98898.13;;;8.58
81177;BMP280;74095;48.270;14.200;2024-01-25T07:57:16;98900.72;;;8.53
81177;BMP280;74095;48.270;14.200;2024-01-25T07:59:43;98892.44;;;8.49
81177;BMP280;74095;48.270;14.200;2024-01-25T08:02:09;98919.66;;;8.61
81177;BMP280;74095;48.270;14.200;2024-01-25T08:04:35;98920.47;;;8.62
81177;BMP280;74095;48.270;14.200;2024-01-25T08:07:02;98928.28;;;8.74
81177;BMP280;74095;48.270;14.200;2024-01-25T08:09:27;98936.03;;;8.80
81177;BMP280;74095;48.270;14.200;2024-01-25T08:11:53;98932.56;;;8.80
81177;BMP280;74095;48.270;14.200;2024-01-25T08:14:19;98924.88;;;8.78
81177;BMP280;74095;48.270;14.200;2024-01-25T08:16:45;98926.75;;;8.83
81177;BMP280;74095;48.270;14.200;2024-01-25T08:19:11;98934.06;;;8.97
81177;BMP280;74095;48.270;14.200;2024-01-25T08:21:37;98935.59;;;8.93
81177;BMP280;74095;48.270;14.200;2024-01-25T08:24:03;98936.97;;;8.96
81177;BMP280;74095;48.270;14.200;2024-01-25T08:26:30;98940.97;;;8.98
81177;BMP280;74095;48.270;14.200;2024-01-25T08:28:55;98949.47;;;9.00
81177;BMP280;74095;48.270;14.200;2024-01-25T08:31:21;98946.84;;;9.05
81177;BMP280;74095;48.270;14.200;2024-01-25T08:33:47;98966.31;;;9.06
81177;BMP280;74095;48.270;14.200;2024-01-25T08:36:17;98957.75;;;9.09
81177;BMP280;74095;48.270;14.200;2024-01-25T08:38:44;98970.34;;;9.13
81177;BMP280;74095;48.270;14.200;2024-01-25T08:41:10;98969.56;;;9.18
81177;BMP280;74095;48.270;14.200;2024-01-25T08:43:37;98971.94;;;9.14
81177;BMP280;74095;48.270;14.200;2024-01-25T08:46:03;98974.59;;;9.14
81177;BMP280;74095;48.270;14.200;2024-01-25T08:48:29;98982.13;;;9.23
81177;BMP280;74095;48.270;14.200;2024-01-25T08:50:55;98989.00;;;9.18
81177;BMP280;74095;48.270;14.200;2024-01-25T08:53:20;98990.84;;;9.13
81177;BMP280;74095;48.270;14.200;2024-01-25T08:55:48;98998.56;;;9.14
81177;BMP280;74095;48.270;14.200;2024-01-25T08:58:14;99002.13;;;9.25
81177;BMP280;74095;48.270;14.200;2024-01-25T09:00:40;98994.38;;;9.24
81177;BMP280;74095;48.270;14.200;2024-01-25T09:03:06;98991.97;;;9.27
81177;BMP280;74095;48.270;14.200;2024-01-25T09:05:31;98985.84;;;9.27
81177;BMP280;74095;48.270;14.200;2024-01-25T09:08:00;98987.44;;;9.23
81177;BMP280;74095;48.270;14.200;2024-01-25T09:10:26;98991.16;;;9.27
81177;BMP280;74095;48.270;14.200;2024-01-25T09:12:51;98994.75;;;9.00
81177;BMP280;74095;48.270;14.200;2024-01-25T09:15:17;99000.13;;;9.05
81177;BMP280;74095;48.270;14.200;2024-01-25T09:17:44;99011.53;;;9.01
81177;BMP280;74095;48.270;14.200;2024-01-25T09:20:10;99016.59;;;9.02
81177;BMP280;74095;48.270;14.200;2024-01-25T09:22:36;99009.16;;;9.04
81177;BMP280;74095;48.270;14.200;2024-01-25T09:25:03;99027.56;;;9.06
81177;BMP280;74095;48.270;14.200;2024-01-25T09:27:29;99029.34;;;8.95
81177;BMP280;74095;48.270;14.200;2024-01-25T09:29:55;99025.56;;;8.91
81177;BMP280;74095;48.270;14.200;2024-01-25T09:32:21;99022.81;;;8.81
81177;BMP280;74095;48.270;14.200;2024-01-25T09:34:47;99032.47;;;8.92
81177;BMP280;74095;48.270;14.200;2024-01-25T09:37:13;99029.34;;;9.00
81177;BMP280;74095;48.270;14.200;2024-01-25T09:39:40;99022.91;;;8.91
81177;BMP280;74095;48.270;14.200;2024-01-25T09:42:07;99022.75;;;9.03
81177;BMP280;74095;48.270;14.200;2024-01-25T09:44:33;99041.06;;;8.99
81177;BMP280;74095;48.270;14.200;2024-01-25T09:47:03;99041.69;;;9.11
81177;BMP280;74095;48.270;14.200;2024-01-25T09:49:29;99024.56;;;8.97
81177;BMP280;74095;48.270;14.200;2024-01-25T09:51:55;99034.50;;;9.12
81177;BMP280;74095;48.270;14.200;2024-01-25T09:54:21;99041.44;;;9.13
81177;BMP280;74095;48.270;14.200;2024-01-25T09:56:51;99042.75;;;9.10
81177;BMP280;74095;48.270;14.200;2024-01-25T09:59:17;99041.53;;;9.28
81177;BMP280;74095;48.270;14.200;2024-01-25T10:01:43;99043.19;;;9.34
81177;BMP280;74095;48.270;14.200;2024-01-25T10:04:09;99048.00;;;9.42
81177;BMP280;74095;48.270;14.200;2024-01-25T10:06:35;99045.69;;;9.51
81177;BMP280;74095;48.270;14.200;2024-01-25T10:09:01;99049.22;;;9.66
81177;BMP280;74095;48.270;14.200;2024-01-25T10:11:28;99046.44;;;10.03
81177;BMP280;74095;48.270;14.200;2024-01-25T10:14:00;99047.00;;;10.15
81177;BMP280;74095;48.270;14.200;2024-01-25T10:16:26;99036.38;;;10.36
81177;BMP280;74095;48.270;14.200;2024-01-25T10:18:52;99032.06;;;10.24
81177;BMP280;74095;48.270;14.200;2024-01-25T10:21:18;99024.06;;;10.14
81177;BMP280;74095;48.270;14.200;2024-01-25T10:23:45;99013.34;;;9.99
81177;BMP280;74095;48.270;14.200;2024-01-25T10:26:13;99014.72;;;10.02
81177;BMP280;74095;48.270;14.200;2024-01-25T10:28:40;99018.63;;;9.84
81177;BMP280;74095;48.270;14.200;2024-01-25T10:31:05;99011.16;;;9.86
81177;BMP280;74095;48.270;14.200;2024-01-25T10:33:31;99005.66;;;10.13
81177;BMP280;74095;48.270;14.200;2024-01-25T10:35:58;99016.63;;;10.37
81177;BMP280;74095;48.270;14.200;2024-01-25T10:38:30;99007.53;;;10.33
81177;BMP280;74095;48.270;14.200;2024-01-25T10:41:00;98996.84;;;10.07
81177;BMP280;74095;48.270;14.200;2024-01-25T10:43:27;99011.00;;;10.18
81177;BMP280;74095;48.270;14.200;2024-01-25T10:45:54;99008.03;;;10.04
81177;BMP280;74095;48.270;14.200;2024-01-25T10:48:26;98994.16;;;10.07
81177;BMP280;74095;48.270;14.200;2024-01-25T10:50:55;99006.94;;;10.00
81177;BMP280;74095;48.270;14.200;2024-01-25T10:53:26;99008.50;;;9.91
81177;BMP280;74095;48.270;14.200;2024-01-25T10:55:53;99004.88;;;10.28
81177;BMP280;74095;48.270;14.200;2024-01-25T10:58:20;98996.31;;;10.20
81177;BMP280;74095;48.270;14.200;2024-01-25T11:00:52;99003.75;;;10.08
81177;BMP280;74095;48.270;14.200;2024-01-25T11:03:26;99000.28;;;10.03
81177;BMP280;74095;48.270;14.200;2024-01-25T11:05:54;99006.94;;;10.00
81177;BMP280;74095;48.270;14.200;2024-01-25T11:08:21;99011.50;;;10.10
81177;BMP280;74095;48.270;14.200;2024-01-25T11:10:50;99008.56;;;10.06
81177;BMP280;74095;48.270;14.200;2024-01-25T11:13:23;99006.97;;;10.05
81177;BMP280;74095;48.270;14.200;2024-01-25T11:15:50;99007.53;;;10.17
81177;BMP280;74095;48.270;14.200;2024-01-25T11:18:16;99008.34;;;10.13
81177;BMP280;74095;48.270;14.200;2024-01-25T11:20:42;98994.69;;;10.09
81177;BMP280;74095;48.270;14.200;2024-01-25T11:23:08;99005.09;;;10.16
81177;BMP280;74095;48.270;14.200;2024-01-25T11:25:38;99008.59;;;10.11
81177;BMP280;74095;48.270;14.200;2024-01-25T11:28:04;99000.06;;;10.19
81177;BMP280;74095;48.270;14.200;2024-01-25T11:30:33;99008.59;;;10.16
81177;BMP280;74095;48.270;14.200;2024-01-25T11:32:59;98998.75;;;10.22
81177;BMP280;74095;48.270;14.200;2024-01-25T11:35:25;99006.75;;;10.27
81177;BMP280;74095;48.270;14.200;2024-01-25T11:37:52;99000.03;;;10.09
81177;BMP280;74095;48.270;14.200;2024-01-25T11:40:18;99001.09;;;10.08
81177;BMP280;74095;48.270;14.200;2024-01-25T11:42:48;98994.66;;;9.94
81177;BMP280;74095;48.270;14.200;2024-01-25T11:45:14;99015.75;;;9.96
81177;BMP280;74095;48.270;14.200;2024-01-25T11:47:41;99002.59;;;9.69
81177;BMP280;74095;48.270;14.200;2024-01-25T11:50:09;99008.78;;;9.85
81177;BMP280;74095;48.270;14.200;2024-01-25T11:52:36;98999.38;;;9.67
81177;BMP280;74095;48.270;14.200;2024-01-25T11:55:03;99007.94;;;9.74
81177;BMP280;74095;48.270;14.200;2024-01-25T11:57:30;98999.13;;;9.68
81177;BMP280;74095;48.270;14.200;2024-01-25T11:59:58;99009.28;;;9.71
81177;BMP280;74095;48.270;14.200;2024-01-25T12:02:24;99000.47;;;9.76
81177;BMP280;74095;48.270;14.200;2024-01-25T12:04:51;99006.59;;;9.77
81177;BMP280;74095;48.270;14.200;2024-01-25T12:07:20;99003.16;;;9.86
81177;BMP280;74095;48.270;14.200;2024-01-25T12:10:07;99006.38;;;9.83
81177;BMP280;74095;48.270;14.200;2024-01-25T12:12:35;99001.88;;;9.94
81177;BMP280;74095;48.270;14.200;2024-01-25T12:15:03;98999.47;;;10.02
81177;BMP280;74095;48.270;14.200;2024-01-25T12:17:30;99020.31;;;10.05
81177;BMP280;74095;48.270;14.200;2024-01-25T12:19:57;98995.47;;;10.00
81177;BMP280;74095;48.270;14.200;2024-01-25T12:22:24;99007.78;;;10.11
81177;BMP280;74095;48.270;14.200;2024-01-25T12:24:58;98983.47;;;10.02
81177;BMP280;74095;48.270;14.200;2024-01-25T12:27:26;98986.69;;;10.04
81177;BMP280;74095;48.270;14.200;2024-01-25T12:29:53;98991.81;;;10.21
81177;BMP280;74095;48.270;14.200;2024-01-25T12:32:22;98991.00;;;10.20
81177;BMP280;74095;48.270;14.200;2024-01-25T12:34:59;98999.53;;;10.17
81177;BMP280;74095;48.270;14.200;2024-01-25T12:37:29;98998.47;;;10.18
81177;BMP280;74095;48.270;14.200;2024-01-25T12:39:55;98999.28;;;10.24
81177;BMP280;74095;48.270;14.200;2024-01-25T12:42:21;98998.47;;;10.18
81177;BMP280;74095;48.270;14.200;2024-01-25T12:44:47;98999.50;;;10.07
81177;BMP280;74095;48.270;14.200;2024-01-25T12:47:14;98994.16;;;10.07
81177;BMP280;74095;48.270;14.200;2024-01-25T12:49:43;98989.38;;;10.04
81177;BMP280;74095;48.270;14.200;2024-01-25T12:52:10;98981.38;;;10.19
81177;BMP280;74095;48.270;14.200;2024-01-25T12:54:37;98976.34;;;10.28
81177;BMP280;74095;48.270;14.200;2024-01-25T12:57:04;98977.66;;;10.31
81177;BMP280;74095;48.270;14.200;2024-01-25T12:59:30;98983.78;;;10.31
81177;BMP280;74095;48.270;14.200;2024-01-25T13:01:57;98974.97;;;10.20
81177;BMP280;74095;48.270;14.200;2024-01-25T13:04:23;98966.97;;;10.25
81177;BMP280;74095;48.270;14.200;2024-01-25T13:06:50;98955.78;;;10.18
81177;BMP280;74095;48.270;14.200;2024-01-25T13:09:16;98959.53;;;10.22
81177;BMP280;74095;48.270;14.200;2024-01-25T13:11:42;98952.03;;;10.19
81177;BMP280;74095;48.270;14.200;2024-01-25T13:14:08;98955.78;;;10.18
81177;BMP280;74095;48.270;14.200;2024-01-25T13:16:34;98953.09;;;10.23
81177;BMP280;74095;48.270;14.200;2024-01-25T13:19:00;98951.78;;;10.21
81177;BMP280;74095;48.270;14.200;2024-01-25T13:21:26;98929.09;;;10.18
81177;BMP280;74095;48.270;14.200;2024-01-25T13:23:51;98942.97;;;10.20
81177;BMP280;74095;48.270;14.200;2024-01-25T13:26:17;98932.56;;;10.19
81177;BMP280;74095;48.270;14.200;2024-01-25T13:28:43;98938.66;;;9.99
81177;BMP280;74095;48.270;14.200;2024-01-25T13:31:09;98933.09;;;9.96
81177;BMP280;74095;48.270;14.200;2024-01-25T13:33:35;98914.13;;;9.87
81177;BMP280;74095;48.270;14.200;2024-01-25T13:36:01;98920.50;;;9.86
81177;BMP280;74095;48.270;14.200;2024-01-25T13:38:27;98907.47;;;9.85
81177;BMP280;74095;48.270;14.200;2024-01-25T13:40:53;98916.78;;;9.87
81177;BMP280;74095;48.270;14.200;2024-01-25T13:43:19;98904.50;;;9.86
81177;BMP280;74095;48.270;14.200;2024-01-25T13:45:45;98911.44;;;9.77
81177;BMP280;74095;48.270;14.200;2024-01-25T13:48:11;98909.81;;;9.76
81177;BMP280;74095;48.270;14.200;2024-01-25T13:50:37;98927.44;;;9.77
81177;BMP280;74095;48.270;14.200;2024-01-25T13:53:03;98920.47;;;9.66
81177;BMP280;74095;48.270;14.200;2024-01-25T13:55:29;98933.81;;;9.76
81177;BMP280;74095;48.270;14.200;2024-01-25T13:57:54;98935.44;;;9.77
81177;BMP280;74095;48.270;14.200;2024-01-25T14:00:20;98940.75;;;9.82
81177;BMP280;74095;48.270;14.200;2024-01-25T14:02:46;98954.13;;;9.87
81177;BMP280;74095;48.270;14.200;2024-01-25T14:05:13;98957.84;;;9.86
81177;BMP280;74095;48.270;14.200;2024-01-25T14:07:39;98957.59;;;9.88
81177;BMP280;74095;48.270;14.200;2024-01-25T14:10:05;98966.94;;;9.90
81177;BMP280;74095;48.270;14.200;2024-01-25T14:12:31;98961.84;;;9.89